sensor_id;sensor_type;location;lat;lon;timestamp;temperature;humidity
53645;DHT22;39547;45.554;12.068;2023-03-29T00:00:26;8.70;65.10
53645;DHT22;39547;45.554;12.068;2023-03-29T00:06:28;8.70;65.40
53645;DHT22;39547;45.554;12.068;2023-03-29T00:12:33;8.60;65.80
53645;DHT22;39547;45.554;12.068;2023-03-29T00:18:34;8.60;66.10
53645;DHT22;39547;45.554;12.068;2023-03-29T00:24:36;8.60;66.20
53645;DHT22;39547;45.554;12.068;2023-03-29T00:30:37;8.60;66.50
53645;DHT22;39547;45.554;12.068;2023-03-29T00:36:39;8.70;66.70
53645;DHT22;39547;45.554;12.068;2023-03-29T00:42:43;8.70;66.70
53645;DHT22;39547;45.554;12.068;2023-03-29T00:48:45;8.90;66.70
53645;DHT22;39547;45.554;12.068;2023-03-29T00:54:51;8.90;66.60
53645;DHT22;39547;45.554;12.068;2023-03-29T01:01:08;9.00;66.70
53645;DHT22;39547;45.554;12.068;2023-03-29T01:07:28;9.00;66.50
53645;DHT22;39547;45.554;12.068;2023-03-29T01:13:59;9.00;66.60
53645;DHT22;39547;45.554;12.068;2023-03-29T01:20:20;9.00;66.50
53645;DHT22;39547;45.554;12.068;2023-03-29T01:32:55;8.80;66.60
53645;DHT22;39547;45.554;12.068;2023-03-29T01:39:01;8.70;66.70
53645;DHT22;39547;45.554;12.068;2023-03-29T01:51:31;8.50;66.90
53645;DHT22;39547;45.554;12.068;2023-03-29T01:57:38;8.50;67.20
53645;DHT22;39547;45.554;12.068;2023-03-29T02:03:45;8.40;67.40
53645;DHT22;39547;45.554;12.068;2023-03-29T02:09:51;8.30;67.60
53645;DHT22;39547;45.554;12.068;2023-03-29T02:15:53;8.20;67.70
53645;DHT22;39547;45.554;12.068;2023-03-29T02:22:02;8.30;67.80
53645;DHT22;39547;45.554;12.068;2023-03-29T02:28:05;8.20;67.90
53645;DHT22;39547;45.554;12.068;2023-03-29T02:34:23;8.20;67.90
53645;DHT22;39547;45.554;12.068;2023-03-29T02:40:25;8.20;67.80
53645;DHT22;39547;45.554;12.068;2023-03-29T02:46:27;8.20;67.80
53645;DHT22;39547;45.554;12.068;2023-03-29T02:52:33;8.20;68.00
53645;DHT22;39547;45.554;12.068;2023-03-29T02:58:35;8.20;68.00
53645;DHT22;39547;45.554;12.068;2023-03-29T03:04:37;8.20;68.10
53645;DHT22;39547;45.554;12.068;2023-03-29T03:10:38;8.30;67.90
53645;DHT22;39547;45.554;12.068;2023-03-29T03:16:41;8.30;67.90
53645;DHT22;39547;45.554;12.068;2023-03-29T03:22:44;8.40;67.90
53645;DHT22;39547;45.554;12.068;2023-03-29T03:28:49;8.40;67.60
53645;DHT22;39547;45.554;12.068;2023-03-29T03:35:11;8.50;67.50
53645;DHT22;39547;45.554;12.068;2023-03-29T03:41:14;8.50;67.30
53645;DHT22;39547;45.554;12.068;2023-03-29T03:47:16;8.50;67.00
53645;DHT22;39547;45.554;12.068;2023-03-29T03:53:18;8.60;66.20
53645;DHT22;39547;45.554;12.068;2023-03-29T03:59:39;8.60;66.00
53645;DHT22;39547;45.554;12.068;2023-03-29T04:05:45;8.60;65.10
53645;DHT22;39547;45.554;12.068;2023-03-29T04:11:49;8.60;64.60
53645;DHT22;39547;45.554;12.068;2023-03-29T04:17:55;8.50;65.20
53645;DHT22;39547;45.554;12.068;2023-03-29T04:24:04;8.50;65.50
53645;DHT22;39547;45.554;12.068;2023-03-29T04:30:09;8.40;65.40
53645;DHT22;39547;45.554;12.068;2023-03-29T04:36:36;8.30;66.30
53645;DHT22;39547;45.554;12.068;2023-03-29T04:42:42;8.30;66.40
53645;DHT22;39547;45.554;12.068;2023-03-29T04:48:45;8.20;66.90
53645;DHT22;39547;45.554;12.068;2023-03-29T04:54:48;8.20;66.90
53645;DHT22;39547;45.554;12.068;2023-03-29T05:00:58;8.20;67.20
53645;DHT22;39547;45.554;12.068;2023-03-29T05:07:19;8.20;67.50
53645;DHT22;39547;45.554;12.068;2023-03-29T05:13:21;8.20;67.00
53645;DHT22;39547;45.554;12.068;2023-03-29T05:19:23;8.30;67.60
53645;DHT22;39547;45.554;12.068;2023-03-29T05:25:25;8.40;67.90
53645;DHT22;39547;45.554;12.068;2023-03-29T05:31:27;8.50;67.70
53645;DHT22;39547;45.554;12.068;2023-03-29T05:37:30;8.60;67.80
53645;DHT22;39547;45.554;12.068;2023-03-29T05:43:36;8.60;67.40
53645;DHT22;39547;45.554;12.068;2023-03-29T05:49:37;8.70;67.50
53645;DHT22;39547;45.554;12.068;2023-03-29T05:55:54;8.70;64.80
53645;DHT22;39547;45.554;12.068;2023-03-29T06:01:58;8.70;66.30
53645;DHT22;39547;45.554;12.068;2023-03-29T06:08:01;8.70;66.20
53645;DHT22;39547;45.554;12.068;2023-03-29T06:14:38;8.70;66.80
53645;DHT22;39547;45.554;12.068;2023-03-29T06:20:52;8.80;67.00
53645;DHT22;39547;45.554;12.068;2023-03-29T06:26:54;8.80;66.90
53645;DHT22;39547;45.554;12.068;2023-03-29T06:32:58;8.90;66.50
53645;DHT22;39547;45.554;12.068;2023-03-29T06:39:21;9.00;66.70
53645;DHT22;39547;45.554;12.068;2023-03-29T06:45:55;9.20;65.30
53645;DHT22;39547;45.554;12.068;2023-03-29T06:52:09;9.30;64.10
53645;DHT22;39547;45.554;12.068;2023-03-29T06:58:11;9.30;65.00
53645;DHT22;39547;45.554;12.068;2023-03-29T07:04:14;9.40;64.80
53645;DHT22;39547;45.554;12.068;2023-03-29T07:10:38;9.50;65.40
53645;DHT22;39547;45.554;12.068;2023-03-29T07:16:41;9.70;65.30
53645;DHT22;39547;45.554;12.068;2023-03-29T07:22:49;9.80;64.30
53645;DHT22;39547;45.554;12.068;2023-03-29T07:28:51;10.00;63.60
53645;DHT22;39547;45.554;12.068;2023-03-29T07:34:53;10.20;62.50
53645;DHT22;39547;45.554;12.068;2023-03-29T07:41:07;10.40;62.30
53645;DHT22;39547;45.554;12.068;2023-03-29T07:47:29;10.60;60.90
53645;DHT22;39547;45.554;12.068;2023-03-29T07:53:31;10.80;61.10
53645;DHT22;39547;45.554;12.068;2023-03-29T07:59:36;11.10;57.20
53645;DHT22;39547;45.554;12.068;2023-03-29T08:05:50;11.20;56.80
53645;DHT22;39547;45.554;12.068;2023-03-29T08:11:52;11.40;56.40
53645;DHT22;39547;45.554;12.068;2023-03-29T08:18:02;11.70;59.10
53645;DHT22;39547;45.554;12.068;2023-03-29T08:24:04;12.00;58.00
53645;DHT22;39547;45.554;12.068;2023-03-29T08:30:16;12.20;57.30
53645;DHT22;39547;45.554;12.068;2023-03-29T08:36:18;12.50;54.30
53645;DHT22;39547;45.554;12.068;2023-03-29T08:43:13;12.50;56.50
53645;DHT22;39547;45.554;12.068;2023-03-29T08:49:01;12.70;57.40
53645;DHT22;39547;45.554;12.068;2023-03-29T09:01:52;13.10;56.00
53645;DHT22;39547;45.554;12.068;2023-03-29T09:07:55;13.20;56.70
53645;DHT22;39547;45.554;12.068;2023-03-29T09:26:47;13.70;56.50
53645;DHT22;39547;45.554;12.068;2023-03-29T09:39:25;14.00;53.40
53645;DHT22;39547;45.554;12.068;2023-03-29T09:45:35;14.20;55.00
53645;DHT22;39547;45.554;12.068;2023-03-29T09:51:40;14.50;55.20
53645;DHT22;39547;45.554;12.068;2023-03-29T09:57:44;14.70;53.80
53645;DHT22;39547;45.554;12.068;2023-03-29T10:03:50;14.90;53.90
53645;DHT22;39547;45.554;12.068;2023-03-29T10:09:54;15.10;52.20
53645;DHT22;39547;45.554;12.068;2023-03-29T10:16:24;15.10;50.30
53645;DHT22;39547;45.554;12.068;2023-03-29T10:22:36;15.10;49.10
53645;DHT22;39547;45.554;12.068;2023-03-29T10:28:38;15.00;47.50
53645;DHT22;39547;45.554;12.068;2023-03-29T10:34:40;15.20;47.90
53645;DHT22;39547;45.554;12.068;2023-03-29T10:40:46;15.40;48.70
53645;DHT22;39547;45.554;12.068;2023-03-29T10:46:49;15.60;45.90
53645;DHT22;39547;45.554;12.068;2023-03-29T10:52:50;15.60;46.40
53645;DHT22;39547;45.554;12.068;2023-03-29T11:05:18;15.90;44.50
53645;DHT22;39547;45.554;12.068;2023-03-29T11:17:52;16.40;46.20
53645;DHT22;39547;45.554;12.068;2023-03-29T11:36:36;16.60;47.00
53645;DHT22;39547;45.554;12.068;2023-03-29T11:42:42;16.60;47.10
53645;DHT22;39547;45.554;12.068;2023-03-29T11:55:03;17.10;47.20
53645;DHT22;39547;45.554;12.068;2023-03-29T12:01:09;17.20;45.50
53645;DHT22;39547;45.554;12.068;2023-03-29T12:07:29;17.10;45.30
53645;DHT22;39547;45.554;12.068;2023-03-29T12:13:48;17.30;45.20
53645;DHT22;39547;45.554;12.068;2023-03-29T12:39:26;18.20;42.10
53645;DHT22;39547;45.554;12.068;2023-03-29T12:45:47;18.70;42.20
53645;DHT22;39547;45.554;12.068;2023-03-29T12:51:54;19.10;41.10
53645;DHT22;39547;45.554;12.068;2023-03-29T13:04:20;20.30;39.00
53645;DHT22;39547;45.554;12.068;2023-03-29T13:10:40;20.70;38.50
53645;DHT22;39547;45.554;12.068;2023-03-29T13:16:42;21.30;38.50
53645;DHT22;39547;45.554;12.068;2023-03-29T13:23:05;21.90;36.10
53645;DHT22;39547;45.554;12.068;2023-03-29T13:29:19;22.50;35.40
53645;DHT22;39547;45.554;12.068;2023-03-29T13:35:35;22.70;35.10
53645;DHT22;39547;45.554;12.068;2023-03-29T13:41:45;22.80;34.10
53645;DHT22;39547;45.554;12.068;2023-03-29T13:47:47;23.90;34.30
53645;DHT22;39547;45.554;12.068;2023-03-29T13:54:00;24.90;33.60
53645;DHT22;39547;45.554;12.068;2023-03-29T14:00:14;25.50;32.70
53645;DHT22;39547;45.554;12.068;2023-03-29T14:06:25;25.00;32.00
53645;DHT22;39547;45.554;12.068;2023-03-29T14:12:35;25.30;32.50
53645;DHT22;39547;45.554;12.068;2023-03-29T14:18:39;26.10;30.50
53645;DHT22;39547;45.554;12.068;2023-03-29T14:24:46;26.50;31.20
53645;DHT22;39547;45.554;12.068;2023-03-29T14:30:50;26.30;30.40
53645;DHT22;39547;45.554;12.068;2023-03-29T14:36:54;26.50;30.30
53645;DHT22;39547;45.554;12.068;2023-03-29T14:42:59;26.70;30.10
53645;DHT22;39547;45.554;12.068;2023-03-29T14:49:08;25.70;30.70
53645;DHT22;39547;45.554;12.068;2023-03-29T14:55:14;24.50;32.30
53645;DHT22;39547;45.554;12.068;2023-03-29T15:01:23;23.50;33.40
53645;DHT22;39547;45.554;12.068;2023-03-29T15:07:26;22.70;34.50
53645;DHT22;39547;45.554;12.068;2023-03-29T15:13:28;22.30;35.10
53645;DHT22;39547;45.554;12.068;2023-03-29T15:19:31;21.40;35.90
53645;DHT22;39547;45.554;12.068;2023-03-29T15:31:57;20.40;38.20
53645;DHT22;39547;45.554;12.068;2023-03-29T15:38:01;19.80;39.40
53645;DHT22;39547;45.554;12.068;2023-03-29T15:44:04;19.80;39.70
53645;DHT22;39547;45.554;12.068;2023-03-29T15:50:06;19.80;40.20
53645;DHT22;39547;45.554;12.068;2023-03-29T15:56:12;20.70;39.10
53645;DHT22;39547;45.554;12.068;2023-03-29T16:02:16;21.60;37.90
53645;DHT22;39547;45.554;12.068;2023-03-29T16:08:22;21.80;37.10
53645;DHT22;39547;45.554;12.068;2023-03-29T16:14:27;21.40;38.40
53645;DHT22;39547;45.554;12.068;2023-03-29T16:20:30;21.40;38.20
53645;DHT22;39547;45.554;12.068;2023-03-29T16:26:32;20.60;38.00
53645;DHT22;39547;45.554;12.068;2023-03-29T16:32:34;19.60;39.10
53645;DHT22;39547;45.554;12.068;2023-03-29T16:38:36;19.00;40.50
53645;DHT22;39547;45.554;12.068;2023-03-29T16:44:38;18.20;44.40
53645;DHT22;39547;45.554;12.068;2023-03-29T16:50:39;17.70;46.10
53645;DHT22;39547;45.554;12.068;2023-03-29T16:56:40;17.20;48.30
53645;DHT22;39547;45.554;12.068;2023-03-29T17:02:42;16.80;50.50
53645;DHT22;39547;45.554;12.068;2023-03-29T17:08:44;16.70;51.70
53645;DHT22;39547;45.554;12.068;2023-03-29T17:14:47;16.20;53.40
53645;DHT22;39547;45.554;12.068;2023-03-29T17:20:50;15.80;53.70
53645;DHT22;39547;45.554;12.068;2023-03-29T17:26:51;15.50;55.40
53645;DHT22;39547;45.554;12.068;2023-03-29T17:32:53;15.30;55.80
53645;DHT22;39547;45.554;12.068;2023-03-29T17:38:55;15.10;56.20
53645;DHT22;39547;45.554;12.068;2023-03-29T17:44:57;14.90;56.80
53645;DHT22;39547;45.554;12.068;2023-03-29T17:50:59;14.70;57.10
53645;DHT22;39547;45.554;12.068;2023-03-29T17:57:00;14.50;57.30
53645;DHT22;39547;45.554;12.068;2023-03-29T18:03:02;14.40;57.80
53645;DHT22;39547;45.554;12.068;2023-03-29T18:09:04;14.30;58.00
53645;DHT22;39547;45.554;12.068;2023-03-29T18:15:06;14.20;58.30
53645;DHT22;39547;45.554;12.068;2023-03-29T18:21:08;14.10;58.80
53645;DHT22;39547;45.554;12.068;2023-03-29T18:27:12;14.00;59.60
53645;DHT22;39547;45.554;12.068;2023-03-29T18:33:15;13.80;60.70
53645;DHT22;39547;45.554;12.068;2023-03-29T18:39:17;13.70;61.30
53645;DHT22;39547;45.554;12.068;2023-03-29T18:45:18;13.70;61.90
53645;DHT22;39547;45.554;12.068;2023-03-29T18:51:20;13.50;62.50
53645;DHT22;39547;45.554;12.068;2023-03-29T18:57:23;13.50;62.60
53645;DHT22;39547;45.554;12.068;2023-03-29T19:03:24;13.40;63.30
53645;DHT22;39547;45.554;12.068;2023-03-29T19:09:27;13.30;63.40
53645;DHT22;39547;45.554;12.068;2023-03-29T19:15:29;13.20;63.70
53645;DHT22;39547;45.554;12.068;2023-03-29T19:21:31;13.20;64.00
53645;DHT22;39547;45.554;12.068;2023-03-29T19:27:33;13.10;64.30
53645;DHT22;39547;45.554;12.068;2023-03-29T19:33:34;13.00;65.40
53645;DHT22;39547;45.554;12.068;2023-03-29T19:39:36;12.90;65.30
53645;DHT22;39547;45.554;12.068;2023-03-29T19:45:37;12.80;65.50
53645;DHT22;39547;45.554;12.068;2023-03-29T19:51:40;12.80;66.00
53645;DHT22;39547;45.554;12.068;2023-03-29T19:57:42;12.70;66.20
53645;DHT22;39547;45.554;12.068;2023-03-29T20:03:43;12.70;66.50
53645;DHT22;39547;45.554;12.068;2023-03-29T20:09:46;12.70;66.90
53645;DHT22;39547;45.554;12.068;2023-03-29T20:15:47;12.60;67.00
53645;DHT22;39547;45.554;12.068;2023-03-29T20:21:50;12.50;67.20
53645;DHT22;39547;45.554;12.068;2023-03-29T20:27:55;12.50;67.60
53645;DHT22;39547;45.554;12.068;2023-03-29T20:33:57;12.40;67.80
53645;DHT22;39547;45.554;12.068;2023-03-29T20:39:58;12.40;67.70
53645;DHT22;39547;45.554;12.068;2023-03-29T20:46:00;12.40;67.90
53645;DHT22;39547;45.554;12.068;2023-03-29T20:52:10;12.30;67.90
53645;DHT22;39547;45.554;12.068;2023-03-29T20:58:12;12.20;68.10
53645;DHT22;39547;45.554;12.068;2023-03-29T21:04:15;12.20;68.50
53645;DHT22;39547;45.554;12.068;2023-03-29T21:10:17;12.20;68.70
53645;DHT22;39547;45.554;12.068;2023-03-29T21:16:19;12.20;68.80
53645;DHT22;39547;45.554;12.068;2023-03-29T21:22:20;12.20;68.90
53645;DHT22;39547;45.554;12.068;2023-03-29T21:28:23;12.20;69.10
53645;DHT22;39547;45.554;12.068;2023-03-29T21:34:24;12.10;69.20
53645;DHT22;39547;45.554;12.068;2023-03-29T21:40:26;12.10;69.30
53645;DHT22;39547;45.554;12.068;2023-03-29T21:46:27;12.20;69.30
53645;DHT22;39547;45.554;12.068;2023-03-29T21:52:29;12.20;69.40
53645;DHT22;39547;45.554;12.068;2023-03-29T21:58:30;12.20;69.30
53645;DHT22;39547;45.554;12.068;2023-03-29T22:04:32;12.30;69.30
53645;DHT22;39547;45.554;12.068;2023-03-29T22:10:36;12.30;69.30
53645;DHT22;39547;45.554;12.068;2023-03-29T22:16:37;12.30;69.30
53645;DHT22;39547;45.554;12.068;2023-03-29T22:22:44;12.30;69.60
53645;DHT22;39547;45.554;12.068;2023-03-29T22:28:46;12.20;69.70
53645;DHT22;39547;45.554;12.068;2023-03-29T22:34:47;12.20;69.80
53645;DHT22;39547;45.554;12.068;2023-03-29T22:40:48;12.20;70.00
53645;DHT22;39547;45.554;12.068;2023-03-29T22:46:51;12.10;70.20
53645;DHT22;39547;45.554;12.068;2023-03-29T22:52:52;12.00;70.20
53645;DHT22;39547;45.554;12.068;2023-03-29T22:58:53;12.00;70.60
53645;DHT22;39547;45.554;12.068;2023-03-29T23:04:55;11.90;70.80
53645;DHT22;39547;45.554;12.068;2023-03-29T23:10:57;11.90;71.00
53645;DHT22;39547;45.554;12.068;2023-03-29T23:16:58;11.80;71.20
53645;DHT22;39547;45.554;12.068;2023-03-29T23:23:00;11.70;71.30
53645;DHT22;39547;45.554;12.068;2023-03-29T23:29:01;11.70;71.70
53645;DHT22;39547;45.554;12.068;2023-03-29T23:35:04;11.70;71.80
53645;DHT22;39547;45.554;12.068;2023-03-29T23:41:07;11.60;71.90
53645;DHT22;39547;45.554;12.068;2023-03-29T23:47:10;11.60;72.00
53645;DHT22;39547;45.554;12.068;2023-03-29T23:53:12;11.60;72.20
53645;DHT22;39547;45.554;12.068;2023-03-29T23:59:13;11.50;72.40
